• Join FlightAware (Why Join?)
  • Login
  • US Flag 
08:45AM EDT


 

Airport Tracker/Info


-or-


 

Live Flight TrackerFlight Track Log ✈ EJA929 ✈ 16-Jun-2013 ✈ KELP - KSAT

Flight Track Log - Related Links

Times and Time Zones

All times are in EDT time to prevent confusion due to time zone crossing. See the EJA929 flight status page for this flight to view local times or setup timezone preferences in your user account.

Time Position Orientation Groundspeed Altitude Reporting Facility
EDT Latitude Longitude Course Direction KTS MPH feet Rate Location/Type
04:20PM 31.8017 -106.3881 242° Southwest 170 196 4,300  Level Albuquerque Center
04:20PM 31.7864 -106.4217 242° Southwest 199 229 5,800 2,160 Climbing Albuquerque Center
04:21PM 31.7636 -106.4158 168° South 213 245 6,700 1,920 Climbing Albuquerque Center
04:22PM 31.7469 -106.3692 113° Southeast 261 300 7,800 1,500 Climbing Albuquerque Center
04:22PM 31.7350 -106.3411 117° Southeast 264 304 8,300 1,920 Climbing Albuquerque Center
04:23PM 31.6956 -106.2550 118° Southeast 299 344 10,600 1,500 Climbing Albuquerque Center
04:24PM 31.6519 -106.1564 117° Southeast 342 394 11,400 1,380 Climbing Albuquerque Center
04:25PM 31.6014 -106.0525 120° Southeast 365 420 13,500 2,220 Climbing Albuquerque Center
04:26PM 31.5506 -105.9542 121° Southeast 355 409 16,000 2,460 Climbing Albuquerque Center
04:27PM 31.4697 -105.8575 134° Southeast 345 397 18,700 2,220 Climbing Albuquerque Center
04:28PM 31.4025 -105.7736 133° Southeast 352 405 20,700 1,980 Climbing Albuquerque Center
04:29PM 31.3658 -105.6600 111° Southeast 371 427 22,800 1,920 Climbing Albuquerque Center
04:30PM 31.3281 -105.5431 111° Southeast 381 438 24,700 1,740 Climbing Albuquerque Center
04:31PM 31.2961 -105.4208 107° East 389 448 26,500 1,680 Climbing Albuquerque Center
04:32PM 31.2525 -105.2939 112° Southeast 412 474 28,200 1,620 Climbing Albuquerque Center
04:33PM 31.2083 -105.1633 112° Southeast 424 488 29,900 1,800 Climbing Albuquerque Center
04:34PM 31.1558 -104.9975 110° East 443 510 32,000 1,860 Climbing Albuquerque Center
04:35PM 31.1156 -104.8522 108° East 472 543 33,800 1,440 Climbing Albuquerque Center
04:36PM 31.0872 -104.7019 102° East 475 547 35,000 540 Climbing Albuquerque Center
04:37PM 31.0781 -104.5339 94° East 531 611 35,000  Level Albuquerque Center
04:38PM 31.0728 -104.3606 92° East 539 620 35,000  Level Albuquerque Center
04:39PM 31.0669 -104.1756 92° East 559 643 35,000  Level Albuquerque Center
04:40PM 31.0647 -103.9953 91° East 564 649 35,000 420 Level Albuquerque Center
04:42PM 31.0597 -103.8147 92° East 562 647 35,900 960 Climbing Albuquerque Center
04:43PM 31.0211 -103.6092 102° East 543 625 37,000 480 Climbing Albuquerque Center
04:44PM 30.9808 -103.4383 105° East 544 626 37,000  Level Albuquerque Center
04:45PM 30.9406 -103.2667 105° East 547 629 37,000  Level Albuquerque Center
04:46PM 30.8997 -103.0931 105° East 554 638 37,000  Level Albuquerque Center
04:47PM 30.8592 -102.9217 105° East 555 639 37,000  Level Albuquerque Center
04:48PM 30.8178 -102.7497 106° East 556 640 37,000  Level Albuquerque Center
04:49PM 30.7683 -102.5431 106° East 557 641 37,000  Level Albuquerque Center
04:50PM 30.7275 -102.3722 105° East 556 640 37,000  Level Albuquerque Center
04:51PM 30.6947 -102.2344 105° East 554 638 37,000  Level Houston Center
04:52PM 30.6531 -102.0636 106° East 554 638 37,000  Level Houston Center
04:53PM 30.6119 -101.8917 105° East 555 639 37,000  Level Houston Center
04:54PM 30.5619 -101.6869 106° East 553 636 37,000  Level Houston Center
04:55PM 30.5250 -101.5394 106° East 553 636 37,000  Level Houston Center
04:56PM 30.4744 -101.3347 106° East 553 636 37,000  Level Houston Center
04:57PM 30.4308 -101.1650 107° East 551 634 37,000  Level Houston Center
04:58PM 30.3881 -100.9936 106° East 553 636 37,000  Level Houston Center
04:59PM 30.3439 -100.8228 107° East 553 636 37,000  Level Houston Center
05:00PM 30.3011 -100.6525 106° East 551 634 37,000 -540 Level Houston Center
05:01PM 30.2581 -100.4839 106° East 547 629 36,000 -2,220 Descending Houston Center
05:02PM 30.2069 -100.2800 106° East 543 625 32,500 -3,180 Descending Houston Center
05:03PM 30.1608 -100.1056 107° East 549 632 29,500 -2,880 Descending Houston Center
05:04PM 30.1161 -99.9389 107° East 539 620 26,600 -2,760 Descending Houston Center
05:05PM 30.0753 -99.7847 107° East 505 581 23,900 -2,520 Descending Houston Center
05:06PM 30.0369 -99.6406 107° East 473 544 21,400 -2,460 Descending Houston Center
05:07PM 29.9992 -99.4961 107° East 471 542 18,900 -2,520 Descending Houston Center
05:08PM 29.9489 -99.3186 108° East 458 527 15,800 -2,280 Descending Houston Center
05:09PM 29.9250 -99.2242 106° East 430 495 14,200 -2,220 Descending Houston Center
05:10PM 29.9039 -99.1600 111° Southeast 414 476 13,100 -2,520 Descending Houston Center
05:10PM 29.8733 -99.0792 114° Southeast 405 466 11,600 -2,100 Descending Houston Center
05:11PM 29.8581 -99.0447 117° Southeast 393 452 11,000 -1,560 Descending Houston Center
05:11PM 29.8303 -98.9639 112° Southeast 388 447 10,000 -1,020 Descending Houston Center
05:12PM 29.8167 -98.9292 114° Southeast 341 392 10,000 -900 Level Houston Center
05:12PM 29.7953 -98.8683 112° Southeast 300 345 9,100 -1,680 Descending Houston Center
05:13PM 29.7633 -98.7792 112° Southeast 278 320 7,000 -1,800 Descending Houston Center
05:14PM 29.7172 -98.7083 127° Southeast 275 316 5,400 -1,560 Descending Houston Center
05:15PM 29.6681 -98.6478 133° Southeast 262 302 4,000 -1,200 Descending Houston Center
05:16PM 29.6217 -98.5867 131° Southeast 241 277 3,000 -960 Descending Houston Center
05:18PM 29.5850 -98.5386 131° Southeast 209 241 2,100 -840 Descending Houston Center
05:19PM 29.5558 -98.5031 133° Southeast 123 142 1,200 -660 Descending Houston Center
05:20PM 29.5344 -98.4733 130° Southeast 134 154 800 -480 Descending Houston Center
05:22PM 29.5333 -98.4667 139° Southeast  Level FlightAware Approximate
05:29PM 29.5340 -98.4691 139° Southeast  Level Estimated